Time;durP1;ratioP1;P1;durP2;ratioP2;P2;SDS_P1;SDS_P2;PMS_P1;PMS_P2;Temp;Humidity;BMP_temperature;BMP_pressure;BME280_temperature;BME280_humidity;BME280_pressure;Samples;Min_cycle;Max_cycle;Signal;HPM_P1;HPM_P2
2021/11/08 00:02:46;;;;;;;11.63;2.10;;;8.60;99.90;;;;;;5043589;23;20465;-48
2021/11/08 00:05:13;;;;;;;11.73;2.00;;;8.60;99.90;;;;;;5036961;28;20472;-54
2021/11/08 00:07:43;;;;;;;6.50;1.50;;;8.60;99.90;;;;;;5058434;23;20516;-57
2021/11/08 00:10:09;;;;;;;5.97;1.20;;;8.60;99.90;;;;;;5037062;28;20457;-52
2021/11/08 00:12:39;;;;;;;5.97;1.60;;;8.60;99.90;;;;;;5044059;23;20473;-53
2021/11/08 00:15:10;;;;;;;8.73;1.43;;;8.60;99.90;;;;;;5036730;28;20527;-50
2021/11/08 00:17:49;;;;;;;6.80;1.17;;;8.60;99.90;;;;;;5058033;23;20507;-55
2021/11/08 00:20:25;;;;;;;4.80;1.70;;;8.60;99.90;;;;;;5036513;28;20436;-50
2021/11/08 00:22:52;;;;;;;4.30;1.40;;;8.50;99.90;;;;;;5043204;23;20499;-57
2021/11/08 00:25:22;;;;;;;3.60;2.03;;;8.50;99.90;;;;;;5036115;28;20439;-50
2021/11/08 00:27:49;;;;;;;10.53;2.70;;;8.50;99.90;;;;;;5043509;23;20477;-55
2021/11/08 00:30:16;;;;;;;5.77;1.27;;;8.50;99.90;;;;;;5036458;28;20505;-49
2021/11/08 00:32:42;;;;;;;2.70;1.43;;;8.50;99.90;;;;;;5043101;23;20520;-56
2021/11/08 00:35:09;;;;;;;1.87;1.27;;;8.40;99.90;;;;;;5036089;28;20496;-56
2021/11/08 00:37:39;;;;;;;8.00;1.43;;;8.40;99.90;;;;;;5057391;23;20503;-57
2021/11/08 00:40:07;;;;;;;5.87;1.50;;;8.40;99.90;;;;;;5036265;28;20468;-52
2021/11/08 00:42:35;;;;;;;4.20;1.47;;;8.40;99.90;;;;;;5057405;23;20496;-50
2021/11/08 00:45:02;;;;;;;4.50;1.63;;;8.30;99.90;;;;;;5036447;28;20425;-54
2021/11/08 00:47:34;;;;;;;6.10;2.00;;;8.30;99.90;;;;;;5043084;23;20484;-56
2021/11/08 00:50:01;;;;;;;5.63;1.93;;;8.30;99.90;;;;;;5036096;28;20414;-52
2021/11/08 00:52:28;;;;;;;2.07;1.33;;;8.30;99.90;;;;;;5057392;23;20461;-53
2021/11/08 00:54:59;;;;;;;5.57;1.40;;;8.30;99.90;;;;;;5036114;28;20473;-54
2021/11/08 01:00:05;;;;;;;6.10;1.80;;;8.30;99.90;;;;;;5055763;23;21004;-49
2021/11/08 01:05:02;;;;;;;4.10;1.20;;;8.30;99.90;;;;;;5041148;23;20512;-50
2021/11/08 01:07:29;;;;;;;4.20;1.37;;;8.30;99.90;;;;;;5036814;28;20441;-58
2021/11/08 01:09:56;;;;;;;2.50;0.93;;;8.30;99.90;;;;;;5043235;23;20476;-56
2021/11/08 01:12:25;;;;;;;2.50;1.00;;;8.30;99.90;;;;;;5036144;28;20429;-49
2021/11/08 01:14:53;;;;;;;2.70;2.07;;;8.30;99.90;;;;;;5042433;23;20500;-54
2021/11/08 01:17:21;;;;;;;8.93;1.00;;;8.30;99.90;;;;;;5036426;28;20480;-54
2021/11/08 01:19:50;;;;;;;4.30;1.63;;;8.30;99.90;;;;;;5036034;28;20469;-48
2021/11/08 01:22:18;;;;;;;6.43;2.53;;;8.30;99.90;;;;;;5035892;28;20459;-55
2021/11/08 01:24:52;;;;;;;3.47;2.07;;;8.40;99.90;;;;;;5036144;28;20436;-50
2021/11/08 01:27:21;;;;;;;1.83;1.13;;;8.40;99.90;;;;;;5036319;28;20437;-56
2021/11/08 01:29:53;;;;;;;2.50;1.20;;;8.40;99.90;;;;;;5035828;28;20457;-47
2021/11/08 01:32:19;;;;;;;6.20;2.40;;;8.40;99.90;;;;;;5035470;28;20488;-53
2021/11/08 01:34:46;;;;;;;2.17;0.93;;;8.40;99.90;;;;;;5035854;28;20515;-49
2021/11/08 01:37:16;;;;;;;2.30;1.10;;;8.40;99.90;;;;;;5035418;28;20449;-49
2021/11/08 01:39:44;;;;;;;4.17;1.50;;;8.40;99.90;;;;;;5035841;28;20890;-54
2021/11/08 01:42:12;;;;;;;5.50;1.87;;;8.40;99.90;;;;;;5035606;28;20445;-52
2021/11/08 01:44:39;;;;;;;5.80;1.37;;;8.40;99.90;;;;;;5035324;28;20449;-49
2021/11/08 01:47:08;;;;;;;5.53;1.57;;;8.40;99.90;;;;;;5037321;28;20453;-53
2021/11/08 01:49:36;;;;;;;9.30;2.60;;;8.40;99.90;;;;;;5039508;28;20483;-51
2021/11/08 01:52:04;;;;;;;3.10;1.17;;;8.40;99.90;;;;;;5039314;28;20440;-48
2021/11/08 01:54:31;;;;;;;6.87;1.00;;;8.50;99.90;;;;;;5038942;28;20511;-58
2021/11/08 01:56:58;;;;;;;4.80;1.47;;;8.40;99.90;;;;;;5038744;28;20451;-54
2021/11/08 01:59:27;;;;;;;10.07;2.07;;;8.40;99.90;;;;;;5038716;28;20457;-54
2021/11/08 02:01:54;;;;;;;11.50;1.37;;;8.40;99.90;;;;;;5038950;28;20463;-50
2021/11/08 02:04:23;;;;;;;2.67;1.70;;;8.40;99.90;;;;;;5038782;28;20509;-57
2021/11/08 02:06:51;;;;;;;23.87;3.57;;;8.40;99.90;;;;;;5039172;28;20475;-47
2021/11/08 02:09:18;;;;;;;5.00;1.83;;;8.40;99.90;;;;;;5038755;28;20440;-48
2021/11/08 02:11:44;;;;;;;3.73;1.60;;;8.40;99.90;;;;;;5038960;28;20440;-52
2021/11/08 02:14:11;;;;;;;10.90;1.53;;;8.40;99.90;;;;;;5038927;28;20452;-49
2021/11/08 02:16:38;;;;;;;3.50;0.97;;;8.40;99.90;;;;;;5038658;28;20855;-51
2021/11/08 02:19:06;;;;;;;3.93;2.10;;;8.40;99.90;;;;;;5038705;28;20441;-47
2021/11/08 02:21:36;;;;;;;6.33;1.50;;;8.40;99.90;;;;;;5039006;28;20472;-55
2021/11/08 02:24:06;;;;;;;5.53;1.50;;;8.40;99.90;;;;;;5038922;28;20417;-46
2021/11/08 02:26:35;;;;;;;3.90;1.37;;;8.40;99.90;;;;;;5038810;28;20487;-54
2021/11/08 02:29:02;;;;;;;9.00;2.20;;;8.30;99.90;;;;;;5039159;28;20457;-48
2021/11/08 02:31:30;;;;;;;2.93;1.40;;;8.30;99.90;;;;;;5038875;28;20425;-54
2021/11/08 02:33:57;;;;;;;9.77;1.67;;;8.40;99.90;;;;;;5038776;28;20452;-55
2021/11/08 02:36:24;;;;;;;6.00;1.20;;;8.40;99.90;;;;;;5038257;28;20495;-54
2021/11/08 02:38:55;;;;;;;5.43;1.63;;;8.40;99.90;;;;;;5038731;28;20481;-51
2021/11/08 02:41:22;;;;;;;8.30;2.23;;;8.40;99.90;;;;;;5037894;28;20469;-54
2021/11/08 02:43:49;;;;;;;14.70;2.53;;;8.30;99.90;;;;;;5038344;28;20469;-55
2021/11/08 02:46:17;;;;;;;2.17;1.60;;;8.30;99.90;;;;;;5038409;28;20440;-51
2021/11/08 02:48:47;;;;;;;4.30;1.53;;;8.40;99.90;;;;;;5038560;28;20503;-53
2021/11/08 02:51:17;;;;;;;2.30;1.60;;;8.40;99.90;;;;;;5038989;28;20509;-52
2021/11/08 02:53:51;;;;;;;18.47;1.50;;;8.40;99.90;;;;;;5038756;28;20452;-52
2021/11/08 02:56:20;;;;;;;1.83;1.10;;;8.40;99.90;;;;;;5038458;28;20461;-51
2021/11/08 02:58:47;;;;;;;3.03;1.13;;;8.40;99.90;;;;;;5037034;28;20491;-55
2021/11/08 03:01:17;;;;;;;2.13;1.40;;;8.40;99.90;;;;;;5037921;28;20463;-53
2021/11/08 03:03:46;;;;;;;1.20;1.00;;;8.40;99.90;;;;;;5037637;28;20449;-57
2021/11/08 03:06:18;;;;;;;3.03;0.90;;;8.30;99.90;;;;;;5038249;28;20461;-50
2021/11/08 03:08:44;;;;;;;1.83;1.70;;;8.30;99.90;;;;;;5038358;28;20440;-54
2021/11/08 03:11:13;;;;;;;1.70;1.20;;;8.30;99.90;;;;;;5037838;28;20456;-51
2021/11/08 03:13:50;;;;;;;3.30;1.20;;;8.30;99.90;;;;;;5037597;28;20457;-49
2021/11/08 03:16:21;;;;;;;3.50;1.30;;;8.30;99.90;;;;;;5037491;28;20484;-56
2021/11/08 03:18:55;;;;;;;4.30;2.03;;;8.30;99.90;;;;;;5038116;28;20456;-53
2021/11/08 03:21:22;;;;;;;7.70;1.50;;;8.30;99.90;;;;;;5037503;28;20456;-58
2021/11/08 03:23:51;;;;;;;3.60;1.60;;;8.30;99.90;;;;;;5037870;28;20444;-47
2021/11/08 03:26:29;;;;;;;3.50;1.10;;;8.30;99.90;;;;;;5037418;28;20460;-49
2021/11/08 03:28:58;;;;;;;4.20;1.00;;;8.30;99.90;;;;;;5037739;28;20465;-53
2021/11/08 03:31:29;;;;;;;11.77;1.80;;;8.30;99.90;;;;;;5037757;28;20484;-52
2021/11/08 03:33:56;;;;;;;1.97;0.90;;;8.40;99.90;;;;;;5037573;28;20460;-53
2021/11/08 03:36:22;;;;;;;3.70;1.80;;;8.40;99.90;;;;;;5037210;28;20538;-54
2021/11/08 03:38:49;;;;;;;3.60;1.30;;;8.40;99.90;;;;;;5037117;28;20493;-50
2021/11/08 03:41:16;;;;;;;4.23;1.43;;;8.40;99.90;;;;;;5037225;28;20438;-52
2021/11/08 03:43:43;;;;;;;1.87;1.10;;;8.40;99.90;;;;;;5037479;28;20468;-50
2021/11/08 03:46:11;;;;;;;1.83;1.13;;;8.40;99.90;;;;;;5037429;28;20437;-55
2021/11/08 03:48:38;;;;;;;2.70;1.00;;;8.40;99.90;;;;;;5037088;28;20425;-54
2021/11/08 03:51:08;;;;;;;11.97;2.00;;;8.40;99.90;;;;;;5037400;28;20457;-54
2021/11/08 03:53:35;;;;;;;1.20;0.90;;;8.30;99.90;;;;;;5078925;23;20503;-58
2021/11/08 03:56:06;;;;;;;1.50;1.13;;;8.40;99.90;;;;;;5036239;28;20516;-49
2021/11/08 03:58:33;;;;;;;5.00;1.60;;;8.40;99.90;;;;;;5043258;23;20484;-56
2021/11/08 04:01:05;;;;;;;2.50;1.57;;;8.40;99.90;;;;;;5037015;28;20457;-59
2021/11/08 04:03:35;;;;;;;1.93;1.47;;;8.40;99.90;;;;;;5044093;23;20485;-57
2021/11/08 04:06:02;;;;;;;1.83;1.30;;;8.40;99.90;;;;;;5037023;28;20457;-50
2021/11/08 04:08:29;;;;;;;5.83;1.20;;;8.40;99.90;;;;;;5058756;23;20497;-48
2021/11/08 04:10:56;;;;;;;1.20;1.10;;;8.50;99.90;;;;;;5035881;28;20451;-57
2021/11/08 04:13:29;;;;;;;9.07;2.10;;;8.50;99.90;;;;;;5058386;23;20508;-55
2021/11/08 04:15:58;;;;;;;1.13;1.00;;;8.50;99.90;;;;;;5036865;28;20473;-57
2021/11/08 04:18:27;;;;;;;3.17;1.20;;;8.50;99.90;;;;;;5042941;23;20473;-53
2021/11/08 04:20:57;;;;;;;6.80;2.30;;;8.50;99.90;;;;;;5035948;28;20445;-55
2021/11/08 04:23:26;;;;;;;6.47;1.40;;;8.50;99.90;;;;;;5044044;23;20469;-53
2021/11/08 04:25:59;;;;;;;2.63;1.13;;;8.50;99.90;;;;;;5034884;28;20457;-56
2021/11/08 04:30:56;;;;;;;2.90;1.37;;;8.50;99.90;;;;;;5040588;23;20465;-54
2021/11/08 04:33:31;;;;;;;5.03;1.70;;;8.50;99.90;;;;;;5035976;28;20441;-58
2021/11/08 04:36:15;;;;;;;5.13;2.17;;;8.50;99.90;;;;;;5042751;23;20519;-55
2021/11/08 04:38:48;;;;;;;2.03;1.17;;;8.50;99.90;;;;;;5035565;28;20437;-57
2021/11/08 04:41:37;;;;;;;4.03;1.60;;;8.50;99.90;;;;;;5057162;23;20516;-57
2021/11/08 04:51:55;;;;;;;4.13;1.63;;;8.60;99.90;;;;;;5040452;23;20472;-52
2021/11/08 05:22:08;;;;;;;3.40;1.30;;;8.60;99.90;;;;;;5036684;28;20433;-47
2021/11/08 05:24:42;;;;;;;4.10;1.97;;;8.70;99.90;;;;;;5039441;28;20503;-49
2021/11/08 05:29:58;;;;;;;2.27;1.30;;;8.70;99.90;;;;;;5039191;28;20476;-54
2021/11/08 05:32:33;;;;;;;4.50;1.93;;;8.70;99.90;;;;;;5038586;28;20451;-56
2021/11/08 05:35:00;;;;;;;20.57;3.77;;;8.70;99.90;;;;;;5038910;28;20512;-58
2021/11/08 05:37:32;;;;;;;11.70;2.03;;;8.70;99.90;;;;;;5039222;28;20449;-53
2021/11/08 05:40:06;;;;;;;8.00;1.63;;;8.70;99.90;;;;;;5038702;28;20425;-52
2021/11/08 05:42:33;;;;;;;9.20;1.70;;;8.80;99.90;;;;;;5039059;28;20443;-54
2021/11/08 05:45:00;;;;;;;6.43;1.30;;;8.80;99.90;;;;;;5038746;28;20424;-51
2021/11/08 05:47:29;;;;;;;7.80;2.27;;;8.80;99.90;;;;;;5038430;28;20452;-58
2021/11/08 05:49:56;;;;;;;3.33;1.53;;;8.90;99.90;;;;;;5038296;28;20459;-50
2021/11/08 05:52:23;;;;;;;13.47;3.10;;;8.90;99.90;;;;;;5038794;28;20540;-55
2021/11/08 05:54:50;;;;;;;8.30;1.77;;;8.90;99.90;;;;;;5038429;28;20445;-60
2021/11/08 05:57:41;;;;;;;7.37;1.93;;;8.90;99.90;;;;;;5038680;28;20422;-61
2021/11/08 06:50:41;;;;;;;3.63;1.73;;;9.20;99.90;;;;;;5039772;23;20488;-61
2021/11/08 06:53:19;;;;;;;6.00;1.67;;;9.20;99.90;;;;;;5032127;28;20233;-70
2021/11/08 06:55:51;;;;;;;1.70;0.90;;;9.20;99.90;;;;;;5028038;28;20468;-61
2021/11/08 06:58:21;;;;;;;6.73;1.87;;;9.20;99.90;;;;;;5027353;28;20461;-63
2021/11/08 07:00:50;;;;;;;6.30;2.00;;;9.20;99.90;;;;;;5026793;28;20461;-61
2021/11/08 07:03:17;;;;;;;4.47;1.80;;;9.20;99.90;;;;;;5023475;28;20504;-60
2021/11/08 07:05:44;;;;;;;4.30;1.33;;;9.20;99.90;;;;;;5031473;23;20500;-61
2021/11/08 07:08:11;;;;;;;3.90;1.80;;;9.20;99.90;;;;;;5025017;28;20444;-64
2021/11/08 07:10:38;;;;;;;11.40;4.33;;;9.30;99.90;;;;;;5032496;23;20987;-64
2021/11/08 07:13:06;;;;;;;2.80;1.20;;;9.30;99.90;;;;;;5024907;28;20480;-63
2021/11/08 07:15:33;;;;;;;2.40;1.50;;;9.40;99.90;;;;;;5032410;23;20520;-61
2021/11/08 07:18:02;;;;;;;1.50;1.20;;;9.30;99.90;;;;;;5026256;28;20445;-64
2021/11/08 07:20:29;;;;;;;6.43;1.93;;;9.30;99.90;;;;;;5033066;23;20623;-59
2021/11/08 07:22:56;;;;;;;2.43;1.70;;;9.20;99.90;;;;;;5025822;28;20467;-56
2021/11/08 07:25:23;;;;;;;6.83;1.40;;;9.20;99.90;;;;;;5032565;23;20583;-56
2021/11/08 07:27:50;;;;;;;5.03;1.70;;;9.30;99.90;;;;;;5025687;28;20473;-64
2021/11/08 07:30:17;;;;;;;7.57;1.97;;;9.30;99.90;;;;;;5031730;23;20512;-59
2021/11/08 07:32:44;;;;;;;2.50;1.80;;;9.30;99.90;;;;;;5025729;28;20435;-64
2021/11/08 07:35:12;;;;;;;7.63;1.93;;;9.30;99.90;;;;;;5033572;23;21496;-64
2021/11/08 07:37:38;;;;;;;3.77;1.80;;;9.30;99.90;;;;;;5032427;23;20485;-62
2021/11/08 07:40:06;;;;;;;9.87;2.57;;;9.30;99.90;;;;;;5024468;28;20468;-60
2021/11/08 07:42:33;;;;;;;6.30;2.50;;;9.30;99.90;;;;;;5031529;23;20500;-58
2021/11/08 07:45:00;;;;;;;3.57;2.00;;;9.40;99.90;;;;;;5024149;28;20458;-56
2021/11/08 07:47:27;;;;;;;7.90;2.63;;;9.40;99.90;;;;;;5046550;23;20485;-65
2021/11/08 07:49:53;;;;;;;6.97;2.03;;;9.50;99.90;;;;;;5024319;28;20460;-63
2021/11/08 07:52:22;;;;;;;13.30;1.70;;;9.50;99.90;;;;;;5030643;23;20481;-64
2021/11/08 07:54:49;;;;;;;11.40;1.90;;;9.50;99.90;;;;;;5024294;28;20441;-65
2021/11/08 07:57:15;;;;;;;4.50;1.50;;;9.50;99.90;;;;;;5046750;23;21028;-65
2021/11/08 07:59:44;;;;;;;4.87;1.73;;;9.50;99.90;;;;;;5024707;28;20441;-65
2021/11/08 08:02:11;;;;;;;4.23;1.57;;;9.50;99.90;;;;;;5046245;23;20458;-61
2021/11/08 08:04:38;;;;;;;5.80;1.50;;;9.50;99.90;;;;;;5024867;28;20477;-61
2021/11/08 08:09:35;;;;;;;4.30;1.63;;;9.50;99.90;;;;;;5023275;28;20492;-64
2021/11/08 08:12:02;;;;;;;7.97;2.33;;;9.60;99.90;;;;;;5024860;28;20451;-59
2021/11/08 08:14:29;;;;;;;5.77;1.57;;;9.70;99.90;;;;;;5029986;23;20508;-62
2021/11/08 08:16:56;;;;;;;2.80;1.27;;;9.70;99.90;;;;;;5024077;28;20492;-62
2021/11/08 08:19:23;;;;;;;3.83;1.57;;;9.70;99.90;;;;;;5045054;23;20520;-61
2021/11/08 08:21:49;;;;;;;5.80;1.53;;;9.80;99.90;;;;;;5023612;28;20457;-63
2021/11/08 08:24:16;;;;;;;3.63;2.20;;;9.90;99.90;;;;;;5037937;23;20572;-65
2021/11/08 08:26:45;;;;;;;7.50;2.47;;;10.00;99.90;;;;;;5024136;28;20504;-64
2021/11/08 08:29:14;;;;;;;6.93;1.77;;;10.10;99.90;;;;;;5045582;23;20526;-63
2021/11/08 08:31:43;;;;;;;2.97;1.20;;;10.10;99.90;;;;;;5024180;28;20434;-58
2021/11/08 08:34:11;;;;;;;3.17;1.60;;;10.10;99.90;;;;;;5030343;23;20546;-63
2021/11/08 08:36:38;;;;;;;7.30;2.33;;;10.20;99.90;;;;;;5023013;28;20628;-62
2021/11/08 08:41:34;;;;;;;3.43;1.60;;;10.20;99.90;;;;;;5042038;23;20531;-62
2021/11/08 08:44:03;;;;;;;6.93;1.27;;;10.20;99.90;;;;;;5022828;28;20461;-62
2021/11/08 08:46:29;;;;;;;7.07;2.27;;;10.20;99.90;;;;;;5028922;23;20489;-59
2021/11/08 08:48:58;;;;;;;3.77;1.57;;;10.30;99.90;;;;;;5022180;28;20906;-65
2021/11/08 08:51:25;;;;;;;3.83;1.63;;;10.30;99.90;;;;;;5029956;23;20519;-61
2021/11/08 08:53:52;;;;;;;7.03;1.33;;;10.20;99.90;;;;;;5022606;28;20463;-61
2021/11/08 08:56:21;;;;;;;5.73;1.80;;;10.10;99.90;;;;;;5029620;23;20497;-65
2021/11/08 08:58:48;;;;;;;2.77;1.87;;;10.00;99.90;;;;;;5023398;28;20504;-64
2021/11/08 09:01:16;;;;;;;4.67;1.70;;;10.00;99.90;;;;;;5030606;23;20485;-62
2021/11/08 09:03:43;;;;;;;4.97;1.57;;;9.90;99.90;;;;;;5023063;28;20551;-64
2021/11/08 09:06:10;;;;;;;5.73;1.57;;;9.90;99.90;;;;;;5031453;23;20495;-64
2021/11/08 09:08:38;;;;;;;5.17;1.33;;;9.90;99.90;;;;;;5024473;28;20456;-65
2021/11/08 09:11:05;;;;;;;7.03;2.20;;;9.80;99.90;;;;;;5031403;23;20523;-63
2021/11/08 09:13:32;;;;;;;3.00;1.70;;;9.80;99.90;;;;;;5024325;28;20640;-63
2021/11/08 09:15:59;;;;;;;7.43;1.33;;;9.80;99.90;;;;;;5038841;23;20476;-63
2021/11/08 09:18:27;;;;;;;4.93;1.70;;;9.80;99.90;;;;;;5022959;28;20467;-62
2021/11/08 09:20:54;;;;;;;2.27;1.43;;;9.90;99.90;;;;;;5044898;23;20460;-65
2021/11/08 09:23:21;;;;;;;6.00;1.53;;;9.90;99.90;;;;;;5002750;28;20481;-64
2021/11/08 09:25:58;;;;;;;;;;;;;;;;;;;;;
2021/11/08 09:28:30;;;;;;;8.03;1.60;;;10.00;99.90;;;;;;5044767;23;20485;-65
2021/11/08 09:30:57;;;;;;;8.53;1.50;;;10.00;99.90;;;;;;5022566;28;20473;-65
2021/11/08 09:33:27;;;;;;;2.50;1.37;;;9.90;99.90;;;;;;5029713;23;20579;-60
2021/11/08 09:36:00;;;;;;;3.27;1.20;;;9.90;99.90;;;;;;5023001;28;20473;-67
2021/11/08 09:38:27;;;;;;;6.07;1.13;;;9.90;99.90;;;;;;5030672;23;20510;-62
2021/11/08 09:40:54;;;;;;;4.80;1.30;;;9.90;99.90;;;;;;5023196;28;20468;-59
2021/11/08 09:43:24;;;;;;;7.87;1.80;;;9.90;99.90;;;;;;5029890;23;20511;-64
2021/11/08 09:45:52;;;;;;;3.47;1.93;;;9.90;99.90;;;;;;5022769;28;20456;-66
2021/11/08 09:48:19;;;;;;;3.83;1.27;;;10.00;99.90;;;;;;5029567;23;20566;-64
2021/11/08 09:50:50;;;;;;;1.87;1.40;;;10.00;99.90;;;;;;5022219;28;20449;-69
2021/11/08 09:53:18;;;;;;;7.50;1.30;;;10.00;99.90;;;;;;5028148;23;20977;-60
2021/11/08 09:55:46;;;;;;;7.80;1.67;;;10.10;99.90;;;;;;5021805;28;20449;-64
2021/11/08 09:58:23;;;;;;;7.93;1.60;;;10.10;99.90;;;;;;5028791;23;20611;-67
2021/11/08 10:00:52;;;;;;;2.00;1.60;;;10.10;99.90;;;;;;5020825;28;20445;-59
2021/11/08 10:03:22;;;;;;;11.80;1.80;;;10.20;99.90;;;;;;5027171;23;20500;-62
2021/11/08 10:05:51;;;;;;;5.63;1.50;;;10.20;99.90;;;;;;5021232;28;20629;-63
2021/11/08 10:11:04;;;;;;;4.93;2.03;;;10.20;99.90;;;;;;5031946;23;20876;-63
2021/11/08 10:13:33;;;;;;;4.63;1.80;;;10.20;99.90;;;;;;5024486;28;20425;-65
2021/11/08 10:16:02;;;;;;;4.80;1.87;;;10.30;99.90;;;;;;5025202;28;20461;-62
2021/11/08 10:18:31;;;;;;;6.90;1.77;;;10.30;99.90;;;;;;5025270;28;20527;-63
2021/11/08 10:21:09;;;;;;;5.33;2.00;;;10.30;99.90;;;;;;5024719;28;20652;-63
2021/11/08 10:23:37;;;;;;;1.50;1.30;;;10.40;99.90;;;;;;5046242;23;20507;-63
2021/11/08 10:26:08;;;;;;;3.03;1.57;;;10.50;99.90;;;;;;5017765;28;20445;-63
2021/11/08 10:28:35;;;;;;;3.20;1.50;;;10.50;99.90;;;;;;5024138;23;20554;-64
2021/11/08 10:31:07;;;;;;;6.33;1.77;;;10.60;99.90;;;;;;5018728;28;20949;-65
2021/11/08 10:36:12;;;;;;;6.70;1.90;;;10.80;99.90;;;;;;5029417;28;20546;-64
2021/11/08 10:38:41;;;;;;;6.20;1.53;;;10.80;99.90;;;;;;5025503;23;20484;-62
2021/11/08 10:41:11;;;;;;;4.60;1.77;;;11.10;99.90;;;;;;5017728;28;20452;-63
2021/11/08 10:43:41;;;;;;;3.93;1.57;;;11.30;99.90;;;;;;5027071;23;20496;-64
2021/11/08 10:46:11;;;;;;;5.37;1.97;;;11.50;99.90;;;;;;5016873;28;20437;-62
2021/11/08 10:48:40;;;;;;;2.90;1.30;;;11.60;99.90;;;;;;5025187;23;20489;-48
2021/11/08 10:51:12;;;;;;;10.00;1.90;;;11.70;99.90;;;;;;5031044;28;20815;-65
2021/11/08 10:53:53;;;;;;;5.03;1.50;;;11.70;99.90;;;;;;5034593;23;20465;-65
2021/11/08 10:56:26;;;;;;;2.60;1.40;;;11.80;99.90;;;;;;5020906;28;20441;-57
2021/11/08 10:58:57;;;;;;;3.70;1.87;;;11.90;99.90;;;;;;5026640;23;20918;-64
2021/11/08 11:01:30;;;;;;;1.63;1.53;;;11.70;99.90;;;;;;5024196;23;20487;-64
2021/11/08 11:04:00;;;;;;;4.27;1.53;;;11.60;99.90;;;;;;5023101;28;20495;-60
2021/11/08 11:06:40;;;;;;;4.13;1.60;;;11.70;99.90;;;;;;5029328;23;20481;-62
2021/11/08 11:09:14;;;;;;;7.20;2.20;;;11.70;99.90;;;;;;5022384;28;20437;-65
2021/11/08 11:11:45;;;;;;;9.63;1.67;;;11.70;99.90;;;;;;5028756;23;20485;-63
2021/11/08 11:14:12;;;;;;;4.70;1.83;;;11.60;99.90;;;;;;5021916;28;20472;-62
2021/11/08 11:16:49;;;;;;;4.40;1.33;;;11.60;99.90;;;;;;5028248;23;20488;-58
2021/11/08 11:19:18;;;;;;;6.80;1.90;;;11.60;99.90;;;;;;5021474;28;20472;-61
2021/11/08 11:21:57;;;;;;;3.30;1.37;;;11.40;99.90;;;;;;5030062;23;20503;-64
2021/11/08 11:24:41;;;;;;;3.13;1.40;;;11.30;99.90;;;;;;5023295;28;20468;-62
2021/11/08 11:27:11;;;;;;;3.17;1.87;;;11.30;99.90;;;;;;5030040;23;20887;-65
2021/11/08 11:29:39;;;;;;;4.37;1.53;;;11.30;99.90;;;;;;5022477;28;20468;-64
2021/11/08 11:32:18;;;;;;;4.57;1.70;;;11.30;99.90;;;;;;5028857;23;20591;-63
2021/11/08 11:34:46;;;;;;;12.83;1.97;;;11.30;99.90;;;;;;5021822;28;20464;-64
2021/11/08 11:37:16;;;;;;;2.60;1.73;;;11.30;99.90;;;;;;5028750;23;20492;-63
2021/11/08 11:39:44;;;;;;;15.47;6.30;;;11.30;99.90;;;;;;5022882;28;20435;-64
2021/11/08 11:42:14;;;;;;;8.43;3.20;;;11.30;99.90;;;;;;5036810;23;20523;-59
2021/11/08 11:44:41;;;;;;;8.63;1.77;;;11.30;99.90;;;;;;5020761;28;20480;-61
2021/11/08 11:50:13;;;;;;;8.40;1.73;;;11.40;99.90;;;;;;5028716;23;20479;-65
2021/11/08 11:52:43;;;;;;;3.50;1.20;;;11.40;99.90;;;;;;5028584;23;21008;-64
2021/11/08 11:55:11;;;;;;;12.33;2.10;;;11.50;99.90;;;;;;5001013;28;20485;-65
2021/11/08 12:00:08;;;;;;;16.47;1.90;;;11.50;99.90;;;;;;5026370;23;20473;-62
2021/11/08 12:02:35;;;;;;;5.67;1.60;;;11.50;99.90;;;;;;5020960;28;20465;-64
2021/11/08 12:05:02;;;;;;;6.43;1.57;;;11.50;99.90;;;;;;5041473;23;20508;-64
2021/11/08 12:07:29;;;;;;;2.07;1.13;;;11.50;99.90;;;;;;5020010;28;20960;-58
2021/11/08 12:09:59;;;;;;;12.77;1.87;;;11.40;99.90;;;;;;5026994;23;20526;-61
2021/11/08 12:12:30;;;;;;;6.80;1.20;;;11.40;99.90;;;;;;5019606;28;20449;-63
2021/11/08 12:15:06;;;;;;;2.83;1.50;;;11.30;99.90;;;;;;5026636;23;20512;-63
2021/11/08 12:17:37;;;;;;;6.20;1.70;;;11.30;99.90;;;;;;5020062;28;20542;-63
2021/11/08 12:20:07;;;;;;;8.23;1.93;;;11.40;99.90;;;;;;5026632;23;20497;-59
2021/11/08 12:22:34;;;;;;;6.73;1.53;;;11.40;99.90;;;;;;5019801;28;20441;-63
2021/11/08 12:25:07;;;;;;;8.33;1.70;;;11.40;99.90;;;;;;5026464;23;20531;-63
2021/11/08 12:27:38;;;;;;;1.53;1.07;;;11.50;99.90;;;;;;5019506;28;20501;-66
2021/11/08 12:30:11;;;;;;;3.63;1.30;;;11.50;99.90;;;;;;5022390;23;20497;-63
2021/11/08 12:32:50;;;;;;;2.03;1.30;;;11.50;99.90;;;;;;5015778;28;20460;-62
2021/11/08 12:35:21;;;;;;;6.00;1.50;;;11.60;99.90;;;;;;5023545;23;20500;-60
2021/11/08 12:37:48;;;;;;;3.13;1.30;;;11.70;99.90;;;;;;5016975;28;20495;-63
2021/11/08 12:40:19;;;;;;;2.53;1.60;;;11.60;99.90;;;;;;5023635;23;20492;-63
2021/11/08 12:42:50;;;;;;;2.07;1.30;;;11.70;99.90;;;;;;5017212;28;20449;-62
2021/11/08 12:45:23;;;;;;;6.57;2.00;;;11.70;99.90;;;;;;5017189;28;20434;-62
2021/11/08 12:48:00;;;;;;;4.50;1.20;;;11.80;99.90;;;;;;5017856;28;20437;-62
2021/11/08 12:50:36;;;;;;;8.93;2.40;;;11.80;99.90;;;;;;5017429;28;20793;-58
2021/11/08 12:53:04;;;;;;;3.03;0.83;;;11.90;99.90;;;;;;5017425;28;20762;-53
2021/11/08 12:55:42;;;;;;;11.67;1.57;;;11.90;99.90;;;;;;5017522;28;20559;-62
2021/11/08 12:58:11;;;;;;;2.43;1.10;;;11.90;99.90;;;;;;5016545;28;20476;-62
2021/11/08 13:00:41;;;;;;;5.23;2.30;;;11.90;99.90;;;;;;5016831;28;20488;-62
2021/11/08 13:03:14;;;;;;;2.10;1.27;;;11.90;99.90;;;;;;5016623;28;20445;-59
2021/11/08 13:05:44;;;;;;;4.60;1.37;;;11.90;99.90;;;;;;5017144;28;20449;-63
2021/11/08 13:08:18;;;;;;;5.97;0.90;;;11.80;99.90;;;;;;5016773;28;20475;-63
2021/11/08 13:10:56;;;;;;;3.63;0.97;;;11.70;99.90;;;;;;5017162;28;20429;-64
2021/11/08 13:13:24;;;;;;;2.27;1.33;;;11.60;99.90;;;;;;5016954;28;20840;-63
2021/11/08 13:15:51;;;;;;;1.87;0.83;;;11.60;99.90;;;;;;5017373;28;20524;-63
2021/11/08 13:18:19;;;;;;;7.60;1.00;;;11.60;99.90;;;;;;5016594;28;21049;-62
2021/11/08 13:20:49;;;;;;;6.20;1.20;;;11.50;99.90;;;;;;5017242;28;20480;-57
2021/11/08 13:23:18;;;;;;;4.93;1.03;;;11.50;99.90;;;;;;5016939;28;20475;-62
2021/11/08 13:25:49;;;;;;;4.07;1.23;;;11.50;99.90;;;;;;5017019;28;20568;-63
2021/11/08 13:28:19;;;;;;;12.60;1.53;;;11.40;99.90;;;;;;5017542;28;20448;-62
2021/11/08 13:30:47;;;;;;;1.83;1.20;;;11.30;99.90;;;;;;5018060;28;20785;-63
2021/11/08 13:33:19;;;;;;;2.73;1.33;;;11.30;99.90;;;;;;5017423;28;20455;-62
2021/11/08 13:35:47;;;;;;;1.83;1.00;;;11.20;99.90;;;;;;5017881;28;20492;-61
2021/11/08 13:38:16;;;;;;;2.33;1.33;;;11.20;99.90;;;;;;5017173;28;20583;-60
2021/11/08 13:40:49;;;;;;;4.63;1.40;;;11.20;99.90;;;;;;5016776;28;20453;-64
2021/11/08 13:43:21;;;;;;;4.50;0.90;;;11.10;99.90;;;;;;5018862;28;20801;-63
2021/11/08 13:45:51;;;;;;;4.63;1.37;;;11.10;99.90;;;;;;5021029;28;20536;-59
2021/11/08 13:48:27;;;;;;;2.93;1.40;;;11.10;99.90;;;;;;5020642;28;20524;-63
2021/11/08 13:50:56;;;;;;;2.50;0.90;;;11.10;99.90;;;;;;5020512;28;20796;-62
2021/11/08 13:53:25;;;;;;;3.80;1.63;;;11.10;99.90;;;;;;5027143;23;21037;-63
2021/11/08 13:55:57;;;;;;;1.70;1.40;;;11.20;99.90;;;;;;5020437;28;20495;-61
2021/11/08 13:58:25;;;;;;;6.93;2.20;;;11.20;99.90;;;;;;5027284;23;20570;-57
2021/11/08 14:00:53;;;;;;;2.03;1.07;;;11.20;99.90;;;;;;5020303;28;20463;-59
2021/11/08 14:03:20;;;;;;;3.30;1.10;;;11.30;99.90;;;;;;5027898;23;20492;-63
2021/11/08 14:05:53;;;;;;;4.30;1.50;;;11.30;99.90;;;;;;5020474;28;20449;-63
2021/11/08 14:08:25;;;;;;;2.07;1.67;;;11.30;99.90;;;;;;5027633;23;20853;-61
2021/11/08 14:10:55;;;;;;;3.37;1.43;;;11.30;99.90;;;;;;5020359;28;20460;-62
2021/11/08 14:13:32;;;;;;;2.80;1.00;;;11.30;99.90;;;;;;5027029;23;20500;-62
2021/11/08 14:16:00;;;;;;;3.37;1.07;;;11.30;99.90;;;;;;5020364;28;20527;-60
2021/11/08 14:18:27;;;;;;;1.70;1.23;;;11.20;99.90;;;;;;5027151;23;20534;-62
2021/11/08 14:21:09;;;;;;;7.10;1.53;;;11.20;99.90;;;;;;5020415;28;20805;-63
2021/11/08 14:23:36;;;;;;;4.40;1.40;;;11.20;99.90;;;;;;5027438;23;20434;-61
2021/11/08 14:26:15;;;;;;;10.30;1.27;;;11.20;99.90;;;;;;5027169;23;20592;-63
2021/11/08 14:28:44;;;;;;;2.40;0.87;;;11.20;99.90;;;;;;5020430;28;20481;-61
2021/11/08 14:31:20;;;;;;;9.27;1.40;;;11.20;99.90;;;;;;5026537;23;20552;-57
2021/11/08 14:33:47;;;;;;;3.27;1.30;;;11.20;99.90;;;;;;5020909;28;20452;-58
2021/11/08 14:36:16;;;;;;;9.87;1.10;;;11.20;99.90;;;;;;5028658;23;20489;-62
2021/11/08 14:38:48;;;;;;;4.47;1.73;;;11.20;99.90;;;;;;5020923;28;20488;-63
2021/11/08 14:41:16;;;;;;;2.87;1.20;;;11.20;99.90;;;;;;5027142;23;20497;-62
2021/11/08 14:43:46;;;;;;;2.77;1.63;;;11.20;99.90;;;;;;5019803;28;20445;-63
2021/11/08 14:46:13;;;;;;;8.07;1.20;;;11.30;99.90;;;;;;5026144;23;20503;-62
2021/11/08 14:48:42;;;;;;;8.00;1.67;;;11.30;99.90;;;;;;5019252;28;20472;-62
2021/11/08 14:51:10;;;;;;;5.47;1.37;;;11.30;99.90;;;;;;5041350;23;20505;-62
2021/11/08 14:53:50;;;;;;;2.53;1.83;;;11.30;99.90;;;;;;5019749;28;20860;-60
2021/11/08 14:56:19;;;;;;;5.03;1.73;;;11.30;99.90;;;;;;5056369;23;20496;-52
2021/11/08 14:58:56;;;;;;;5.43;1.53;;;11.30;99.90;;;;;;5037965;28;20524;-52